Latest Weather Observations for Swan Hill

IDV60801

Issued at 9:31 pm EDT Wednesday 1 April 2015 (issued every 30 minutes, with the page automatically refreshed every 10 minutes)

About weather observations | Map of weather stations | Latest weather observations for VIC | Other Formats
Station Details ID: 077094 Name: SWAN HILL AERODROME Lat: -35.38 Lon: 143.54 Height: 71.0 m
Data from the previous 72 hours. | See also: Recent months at Swan Hill
Date/Time
EDT
Temp
°C
App
Temp
°C
Dew
Point
Rel
Hum
%
Delta-T
°C
Wind Press
QNH
hPa
Press
MSL
hPa
Rain
since 9 am
mm
Dir
 
Spd
km/h
Gust
km/h
Spd
kts
Gust
kts
01/09:30pm 22.0 19.2 3.2 29 9.0 WNW 7 9 4 5 1014.6 1014.5 0.0
01/09:00pm 22.5 19.9 4.1 30 9.0 WNW 7 7 4 4 1014.4 1014.3 0.0
01/08:30pm 23.3 20.7 4.3 29 9.4 WNW 7 9 4 5 1014.1 1014.0 0.0
01/08:00pm 24.6 20.8 1.5 22 10.9 WNW 11 13 6 7 1014.0 1013.9 0.0
01/07:30pm 26.1 22.4 2.1 21 11.6 WNW 11 13 6 7 1013.8 1013.7 0.0
01/07:00pm 27.5 24.2 4.5 23 11.7 WNW 11 13 6 7 1013.6 1013.5 0.0
01/06:30pm 28.3 24.8 7.0 26 11.4 NW 15 19 8 10 1013.7 1013.6 0.0
01/05:30pm 30.3 24.2 4.9 20 13.3 NNW 26 37 14 20 1013.5 1013.4 0.0
01/05:00pm 30.3 24.4 5.6 21 13.0 NW 26 33 14 18 1013.7 1013.6 0.0
01/04:30pm 30.6 23.9 5.8 21 13.2 NW 30 37 16 20 1013.8 1013.7 0.0
01/04:00pm 30.6 24.9 6.5 22 12.9 NNW 26 39 14 21 1013.8 1013.7 0.0
01/03:30pm 32.1 26.1 7.0 21 13.7 NNW 28 35 15 19 1013.9 1013.8 0.0
01/03:00pm 30.5 24.0 6.4 22 12.9 N 30 43 16 23 1014.7 1014.6 0.0
01/02:30pm 31.3 24.4 6.4 21 13.4 N 32 43 17 23 1015.1 1015.0 0.0
01/02:00pm 30.9 23.9 6.7 22 13.0 NNW 33 44 18 24 1015.5 1015.4 0.0
01/01:30pm 30.7 23.7 5.9 21 13.2 NNW 32 41 17 22 1016.3 1016.2 0.0
01/01:00pm 30.6 23.7 6.5 22 12.9 N 32 43 17 23 1016.8 1016.8 0.0
01/12:30pm 29.6 22.8 6.9 24 12.2 N 32 39 17 21 1017.3 1017.3 0.0
01/12:00pm 28.7 22.8 7.3 26 11.5 N 28 35 15 19 1017.8 1017.8 0.0
01/11:00am 26.5 21.7 7.5 30 10.1 N 22 26 12 14 1018.7 1018.6 0.0
01/10:30am 25.3 21.5 7.4 32 9.5 NNE 17 20 9 11 1019.1 1018.8 0.0
01/10:00am 24.3 20.4 7.0 33 9.0 NNE 17 22 9 12 1019.1 1018.8 0.0
01/09:30am 21.7 17.6 6.4 37 7.8 NE 17 22 9 12 1019.2 1018.9 0.0
01/08:30am 15.5 12.7 5.1 50 4.9 ESE 9 13 5 7 1019.5 1019.3 0.0
01/08:00am 11.5 8.6 2.8 55 3.8 ESE 7 9 4 5 1019.4 1019.2 0.0
01/07:30am 11.9 10.4 3.2 55 3.8 CALM 0 0 0 0 1019.3 1019.0 0.0
01/07:00am 11.6 9.1 3.6 58 3.5 ESE 6 7 3 4 1019.2 1018.9 0.0
01/06:30am 11.5 10.1 3.5 58 3.5 CALM 0 0 0 0 1018.9 1018.6 0.0
01/05:30am 12.1 10.0 3.9 57 3.7 ESE 4 6 2 3 1019.1 1018.8 0.0
01/05:00am 12.5 9.8 3.5 54 4.0 ESE 7 7 4 4 1019.2 1018.9 0.0
01/04:30am 12.9 11.3 2.7 50 4.5 CALM 0 0 0 0 1019.4 1019.2 0.0
01/04:00am 13.3 11.7 2.5 48 4.7 CALM 0 0 0 0 1019.7 1019.5 0.0
01/03:30am 14.3 12.7 2.2 44 5.3 CALM 0 0 0 0 1020.0 1019.8 0.0
01/03:00am 14.8 13.3 3.0 45 5.3 CALM 0 0 0 0 1020.2 1020.0 0.0
01/02:30am 15.6 14.3 4.3 47 5.3 CALM 0 0 0 0 1020.7 1020.5 0.0
01/02:00am 16.0 14.6 3.4 43 5.8 CALM 0 0 0 0 1020.9 1020.7 0.0
01/01:30am 15.0 11.7 0.4 37 6.2 ESE 7 11 4 6 1021.0 1020.8 0.0
01/01:00am 15.3 12.5 5.2 51 4.8 ESE 9 9 5 5 1020.9 1020.7 0.0
01/12:30am 15.8 13.4 4.5 47 5.3 ESE 6 7 3 4 1021.2 1021.0 0.0
01/12:00am 16.6 14.5 5.9 49 5.2 ESE 6 7 3 4 1021.3 1021.1 0.0
 
Date/Time
EDT
Temp
°C
App
Temp
°C
Dew
Point
Rel
Hum
%
Delta-T
°C
Wind Press
QNH
hPa
Press
MSL
hPa
Rain
since 9 am
mm
Dir
 
Spd
km/h
Gust
km/h
Spd
kts
Gust
kts
31/11:30pm 17.2 15.0 3.5 40 6.4 ESE 4 6 2 3 1021.5 1021.3 0.0
31/11:00pm 18.0 15.8 5.2 43 6.2 ESE 6 7 3 4 1021.4 1021.2 0.0
31/10:30pm 19.0 16.5 4.7 39 6.9 ESE 7 9 4 5 1021.4 1021.2 0.0
31/10:00pm 19.5 17.2 5.9 41 6.7 ESE 7 9 4 5 1021.6 1021.4 0.0
31/09:30pm 20.6 18.3 5.8 38 7.4 SE 7 9 4 5 1021.5 1021.3 0.0
31/09:00pm 21.5 19.0 5.0 34 8.1 SE 7 9 4 5 1021.5 1021.3 0.0
31/08:30pm 23.9 21.5 5.3 30 9.4 SE 7 7 4 4 1021.6 1021.4 0.0
31/08:00pm 24.9 22.6 5.7 29 9.8 SE 7 9 4 5 1021.0 1020.8 0.0
31/07:30pm 25.7 23.2 4.8 26 10.6 SE 7 9 4 5 1020.8 1020.6 0.0
31/07:00pm 27.9 26.8 4.9 23 11.8 CALM 0 0 0 0 1020.8 1020.6 0.0
31/06:30pm 29.2 27.2 4.6 21 12.7 ESE 4 7 2 4 1020.6 1020.4 0.0
31/06:00pm 29.1 26.6 4.6 21 12.6 ESE 7 11 4 6 1020.5 1020.3 0.0
31/05:30pm 29.9 27.5 4.5 20 13.1 ENE 6 9 3 5 1020.5 1020.3 0.0
31/05:00pm 29.8 27.4 4.4 20 13.1 NE 6 11 3 6 1020.7 1020.5 0.0
31/04:30pm 30.1 26.7 4.0 19 13.4 ENE 11 17 6 9 1020.9 1020.7 0.0
31/04:00pm 29.8 27.2 4.4 20 13.1 ESE 7 13 4 7 1021.1 1020.9 0.0
31/03:30pm 29.0 26.1 4.5 21 12.6 E 9 15 5 8 1021.5 1021.3 0.0
31/03:00pm 29.1 25.8 4.6 21 12.6 E 11 17 6 9 1021.8 1021.6 0.0
31/02:30pm 28.9 26.3 4.4 21 12.6 NW 7 15 4 8 1022.2 1022.0 0.0
31/02:00pm 29.3 26.4 4.7 21 12.7 NW 9 17 5 9 1022.7 1022.5 0.0
31/01:30pm 28.7 25.8 4.9 22 12.3 E 9 17 5 9 1023.2 1023.0 0.0
31/01:00pm 27.8 24.2 4.8 23 11.8 NNE 13 19 7 10 1023.7 1023.5 0.0
31/12:30pm 27.8 25.0 7.1 27 11.1 E 11 19 6 10 1024.1 1023.9 0.0
31/12:00pm 26.1 23.6 8.1 32 9.6 NE 11 17 6 9 1024.9 1024.7 0.0
31/11:30am 24.3 22.5 9.5 39 8.1 ENE 9 15 5 8 1025.4 1025.2 0.0
31/11:00am 22.4 20.7 9.9 45 6.8 ESE 9 15 5 8 1025.8 1025.6 0.0
31/10:30am 20.4 18.3 9.6 50 5.8 E 11 15 6 8 1025.9 1025.7 0.0
31/10:00am 18.7 16.5 9.5 55 4.8 ESE 11 17 6 9 1025.9 1025.7 0.0
31/09:30am 17.3 14.7 9.2 59 4.2 ESE 13 17 7 9 1025.8 1025.6 0.0
31/09:00am 15.2 12.2 7.7 61 3.7 SE 13 17 7 9 1025.5 1025.3 0.0
31/08:30am 13.1 10.2 6.5 64 3.2 SE 11 15 6 8 1025.3 1025.1 0.0
31/08:00am 11.4 8.7 5.5 67 2.7 SSE 9 11 5 6 1025.1 1024.9 0.0
31/07:30am 11.2 8.4 5.3 67 2.7 SE 9 11 5 6 1024.7 1024.5 0.0
31/07:00am 11.2 8.4 5.1 66 2.8 SSE 9 11 5 6 1024.3 1024.1 0.0
31/06:30am 11.8 9.4 5.2 64 3.0 SSE 7 9 4 5 1024.1 1023.9 0.0
31/06:00am 12.5 9.8 5.7 63 3.2 SE 9 13 5 7 1023.8 1023.6 0.0
31/05:30am 12.7 10.0 5.6 62 3.3 SE 9 11 5 6 1023.6 1023.4 0.0
31/05:00am 12.9 10.2 5.8 62 3.3 SSE 9 11 5 6 1023.6 1023.4 0.0
31/04:30am 14.1 11.0 5.7 57 4.0 SSE 11 15 6 8 1023.4 1023.2 0.0
31/04:00am 14.3 11.7 6.2 58 3.9 SE 9 11 5 6 1023.4 1023.2 0.0
31/03:30am 13.9 10.9 3.9 51 4.6 SE 9 11 5 6 1023.6 1023.4 0.0
31/03:00am 14.7 11.6 3.8 48 5.0 SSE 9 11 5 6 1023.8 1023.6 0.0
31/02:30am 15.3 11.9 3.8 46 5.3 SE 11 13 6 7 1024.0 1023.8 0.0
31/02:00am 15.6 12.3 4.3 47 5.2 SSE 11 15 6 8 1024.1 1023.9 0.0
31/01:30am 14.6 12.0 4.0 49 4.9 S 7 9 4 5 1024.0 1023.8 0.0
31/01:00am 14.8 11.9 2.4 43 5.5 S 7 7 4 4 1023.9 1023.7 0.0
31/12:30am 15.6 13.2 4.3 47 5.3 S 6 7 3 4 1023.8 1023.6 0.0
31/12:00am 15.6 12.8 3.4 44 5.6 S 7 9 4 5 1024.0 1023.8 0.0
 
Date/Time
EDT
Temp
°C
App
Temp
°C
Dew
Point
Rel
Hum
%
Delta-T
°C
Wind Press
QNH
hPa
Press
MSL
hPa
Rain
since 9 am
mm
Dir
 
Spd
km/h
Gust
km/h
Spd
kts
Gust
kts
30/11:30pm 16.8 14.3 3.8 42 6.1 S 6 7 3 4 1024.1 1023.9 0.0
30/11:00pm 17.5 14.9 3.4 39 6.5 S 6 9 3 5 1024.1 1023.9 0.0
30/10:30pm 18.3 15.5 3.4 37 7.0 S 7 9 4 5 1024.1 1023.9 0.0
30/10:00pm 20.0 16.9 3.7 34 7.7 S 9 11 5 6 1023.9 1023.7 0.0
30/09:30pm 20.6 17.8 3.3 32 8.2 S 7 11 4 6 1023.7 1023.5 0.0
30/09:00pm 21.5 18.3 3.2 30 8.7 S 9 11 5 6 1023.5 1023.3 0.0
30/08:30pm 22.4 19.1 2.5 27 9.4 S 9 13 5 7 1023.2 1023.0 0.0
30/08:00pm 23.8 20.6 3.2 26 10.0 SSW 9 13 5 7 1022.9 1022.7 0.0
30/07:30pm 25.5 22.3 2.9 23 11.0 SSW 9 11 5 6 1022.5 1022.3 0.0
30/07:00pm 27.0 23.8 2.8 21 11.9 WSW 9 11 5 6 1022.3 1022.1 0.0
30/06:30pm 27.5 24.2 2.6 20 12.3 SW 9 15 5 8 1022.1 1021.9 0.0
30/06:00pm 28.1 24.0 2.3 19 12.6 WSW 13 20 7 11 1021.9 1021.7 0.0
30/05:30pm 28.2 23.7 2.4 19 12.7 WSW 15 20 8 11 1021.7 1021.5 0.0
30/05:00pm 28.3 25.1 3.2 20 12.5 SW 9 17 5 9 1021.6 1021.4 0.0
30/04:30pm 28.4 24.7 2.6 19 12.8 SW 11 24 6 13 1021.7 1021.5 0.0
30/04:00pm 28.1 23.8 3.0 20 12.5 W 15 22 8 12 1021.8 1021.6 0.0
30/03:30pm 28.9 25.3 3.0 19 13.0 SW 11 20 6 11 1021.9 1021.7 0.0
30/03:00pm 28.6 24.7 3.5 20 12.6 NW 13 19 7 10 1022.2 1022.0 0.0
30/02:30pm 27.4 23.5 3.2 21 12.0 WSW 13 24 7 13 1022.4 1022.2 0.0
30/02:00pm 27.8 24.3 3.5 21 12.1 W 11 20 6 11 1022.8 1022.6 0.0
30/01:30pm 27.4 23.8 3.2 21 12.0 SSE 11 20 6 11 1023.1 1022.9 0.0
30/01:00pm 27.7 24.9 3.4 21 12.1 NW 7 11 4 6 1023.5 1023.3 0.0
30/12:30pm 26.5 23.7 3.1 22 11.6 WNW 7 11 4 6 1023.9 1023.7 0.0
30/12:00pm 27.2 24.7 3.7 22 11.7 N 6 7 3 4 1024.1 1023.9 0.0
30/11:30am 25.9 23.6 4.9 26 10.7 N 6 9 3 5 1024.3 1024.1 0.0
30/11:00am 24.0 21.9 5.8 31 9.2 W 6 9 3 5 1024.5 1024.3 0.0
30/10:30am 22.2 20.1 6.0 35 8.2 W 6 7 3 4 1024.5 1024.3 0.0
30/10:00am 19.6 17.4 6.0 41 6.7 W 7 9 4 5 1024.3 1024.1 0.0
30/09:30am 18.0 15.8 5.2 43 6.2 W 6 7 3 4 1024.1 1023.9 0.0
30/09:00am 15.4 12.7 3.9 46 5.3 WNW 7 9 4 5 1023.8 1023.6 0.0
30/08:30am 12.9 10.1 2.2 48 4.7 WNW 6 9 3 5 1023.6 1023.4 0.0
30/08:00am 10.2 7.3 1.6 55 3.6 WNW 6 7 3 4 1023.3 1023.1 0.0
30/07:30am 10.1 7.2 1.7 56 3.5 WNW 6 7 3 4 1022.9 1022.7 0.0
30/07:00am 10.5 7.4 1.6 54 3.7 WNW 7 11 4 6 1022.7 1022.5 0.0
30/06:30am 10.4 8.7 1.8 55 3.6 CALM 0 0 0 0 1022.6 1022.4 0.0
30/06:00am 10.7 7.7 0.7 50 4.1 WNW 6 7 3 4 1022.4 1022.2 0.0
30/05:30am 11.5 9.9 2.3 53 4.0 CALM 0 0 0 0 1022.3 1022.1 0.0
30/05:00am 12.1 10.6 2.8 53 4.1 CALM 0 6 0 3 1022.1 1021.9 0.0
30/04:30am 12.7 10.0 2.8 51 4.4 WNW 6 7 3 4 1022.0 1021.8 0.0
30/04:00am 12.8 10.3 3.7 54 4.1 WNW 6 9 3 5 1022.0 1021.8 0.0
30/03:30am 13.6 9.5 2.5 47 4.9 WNW 13 20 7 11 1022.1 1021.9 0.0
30/03:00am 14.2 11.4 5.3 55 4.2 WNW 9 11 5 6 1022.0 1021.8 0.0
30/02:30am 15.2 12.5 3.7 46 5.3 W 7 9 4 5 1022.1 1021.9 0.0
30/02:00am 16.3 13.1 3.0 41 6.0 W 9 11 5 6 1022.2 1022.0 0.0
30/01:30am 16.4 13.8 4.4 45 5.6 NNW 7 9 4 5 1022.3 1022.1 0.0
30/01:00am 16.0 13.7 4.7 47 5.3 NNW 6 7 3 4 1022.3 1022.1 0.0
30/12:30am 15.6 13.3 4.9 49 5.1 NNW 6 7 3 4 1022.4 1022.2 0.0
30/12:00am 15.8 13.4 5.4 50 5.0 NNW 7 9 4 5 1022.5 1022.3 0.0
 
Date/Time
EDT
Temp
°C
App
Temp
°C
Dew
Point
Rel
Hum
%
Delta-T
°C
Wind Press
QNH
hPa
Press
MSL
hPa
Rain
since 9 am
mm
Dir
 
Spd
km/h
Gust
km/h
Spd
kts
Gust
kts
29/11:30pm 16.1 13.1 6.0 51 4.9 NNW 11 13 6 7 1022.6 1022.4 0.0
29/11:00pm 16.8 14.5 5.7 48 5.4 NNW 7 9 4 5 1022.6 1022.4 0.0
29/10:30pm 18.4 16.3 5.9 44 6.2 NNW 6 7 3 4 1022.7 1022.5 0.0
29/10:00pm 19.1 16.8 4.8 39 6.9 NNW 6 6 3 3 1022.6 1022.4 0.0

Other Formats:

Comma delimited format used in spreadsheet applications
http://www.bom.gov.au/fwo/IDV60801/IDV60801.94843.axf

JavaScript Object Notation format (JSON) in row-major order
http://www.bom.gov.au/fwo/IDV60801/IDV60801.94843.json